sensor_id;sensor_type;location;lat;lon;timestamp;P1;durP1;ratioP1;P2;durP2;ratioP2
66478;SDS011;53294;47.912;13.526;2023-01-19T00:00:48;10.27;;;6.70;;
66478;SDS011;53294;47.912;13.526;2023-01-19T00:03:14;11.55;;;7.43;;
66478;SDS011;53294;47.912;13.526;2023-01-19T00:05:41;12.30;;;8.32;;
66478;SDS011;53294;47.912;13.526;2023-01-19T00:08:09;10.02;;;7.28;;
66478;SDS011;53294;47.912;13.526;2023-01-19T00:10:44;11.77;;;7.55;;
66478;SDS011;53294;47.912;13.526;2023-01-19T00:13:13;11.68;;;8.38;;
66478;SDS011;53294;47.912;13.526;2023-01-19T00:15:40;10.93;;;6.70;;
66478;SDS011;53294;47.912;13.526;2023-01-19T00:18:06;11.23;;;7.45;;
66478;SDS011;53294;47.912;13.526;2023-01-19T00:20:36;9.32;;;6.68;;
66478;SDS011;53294;47.912;13.526;2023-01-19T00:23:03;9.63;;;7.50;;
66478;SDS011;53294;47.912;13.526;2023-01-19T00:25:30;9.85;;;6.85;;
66478;SDS011;53294;47.912;13.526;2023-01-19T00:27:57;9.50;;;6.80;;
66478;SDS011;53294;47.912;13.526;2023-01-19T00:30:26;8.60;;;6.45;;
66478;SDS011;53294;47.912;13.526;2023-01-19T00:32:53;10.52;;;6.80;;
66478;SDS011;53294;47.912;13.526;2023-01-19T00:35:20;9.23;;;6.65;;
66478;SDS011;53294;47.912;13.526;2023-01-19T00:37:47;11.23;;;8.00;;
66478;SDS011;53294;47.912;13.526;2023-01-19T00:40:14;10.10;;;6.95;;
66478;SDS011;53294;47.912;13.526;2023-01-19T00:42:40;13.20;;;7.65;;
66478;SDS011;53294;47.912;13.526;2023-01-19T00:45:10;10.45;;;7.25;;
66478;SDS011;53294;47.912;13.526;2023-01-19T00:47:39;10.15;;;6.60;;
66478;SDS011;53294;47.912;13.526;2023-01-19T00:50:06;9.60;;;6.60;;
66478;SDS011;53294;47.912;13.526;2023-01-19T00:52:37;10.82;;;6.93;;
66478;SDS011;53294;47.912;13.526;2023-01-19T00:55:05;10.82;;;7.05;;
66478;SDS011;53294;47.912;13.526;2023-01-19T00:57:33;11.13;;;7.03;;
66478;SDS011;53294;47.912;13.526;2023-01-19T01:00:00;10.88;;;6.78;;
66478;SDS011;53294;47.912;13.526;2023-01-19T01:02:27;11.02;;;7.45;;
66478;SDS011;53294;47.912;13.526;2023-01-19T01:04:54;11.35;;;7.00;;
66478;SDS011;53294;47.912;13.526;2023-01-19T01:07:22;11.32;;;7.25;;
66478;SDS011;53294;47.912;13.526;2023-01-19T01:09:50;10.65;;;7.05;;
66478;SDS011;53294;47.912;13.526;2023-01-19T01:12:16;10.90;;;7.18;;
66478;SDS011;53294;47.912;13.526;2023-01-19T01:14:43;10.20;;;6.80;;
66478;SDS011;53294;47.912;13.526;2023-01-19T01:17:10;9.85;;;6.97;;
66478;SDS011;53294;47.912;13.526;2023-01-19T01:19:39;10.50;;;6.78;;
66478;SDS011;53294;47.912;13.526;2023-01-19T01:22:07;10.88;;;6.97;;
66478;SDS011;53294;47.912;13.526;2023-01-19T01:24:34;12.65;;;8.77;;
66478;SDS011;53294;47.912;13.526;2023-01-19T01:27:01;11.07;;;8.07;;
66478;SDS011;53294;47.912;13.526;2023-01-19T01:29:28;12.38;;;8.05;;
66478;SDS011;53294;47.912;13.526;2023-01-19T01:31:55;13.10;;;8.23;;
66478;SDS011;53294;47.912;13.526;2023-01-19T01:34:21;10.80;;;7.57;;
66478;SDS011;53294;47.912;13.526;2023-01-19T01:36:48;13.18;;;8.63;;
66478;SDS011;53294;47.912;13.526;2023-01-19T01:39:14;12.30;;;7.85;;
66478;SDS011;53294;47.912;13.526;2023-01-19T01:41:41;12.45;;;8.23;;
66478;SDS011;53294;47.912;13.526;2023-01-19T01:50:23;14.35;;;8.82;;
66478;SDS011;53294;47.912;13.526;2023-01-19T01:53:04;13.52;;;8.70;;
66478;SDS011;53294;47.912;13.526;2023-01-19T01:55:39;12.73;;;8.75;;
66478;SDS011;53294;47.912;13.526;2023-01-19T01:58:10;13.13;;;8.32;;
66478;SDS011;53294;47.912;13.526;2023-01-19T02:00:39;13.75;;;8.63;;
66478;SDS011;53294;47.912;13.526;2023-01-19T02:03:25;13.60;;;8.80;;
66478;SDS011;53294;47.912;13.526;2023-01-19T02:05:54;12.32;;;8.82;;
66478;SDS011;53294;47.912;13.526;2023-01-19T02:08:29;13.20;;;9.02;;
66478;SDS011;53294;47.912;13.526;2023-01-19T02:11:20;12.85;;;8.90;;
66478;SDS011;53294;47.912;13.526;2023-01-19T02:14:06;14.27;;;9.10;;
66478;SDS011;53294;47.912;13.526;2023-01-19T02:16:33;11.50;;;8.48;;
66478;SDS011;53294;47.912;13.526;2023-01-19T02:19:03;13.73;;;9.20;;
66478;SDS011;53294;47.912;13.526;2023-01-19T02:21:37;13.10;;;8.75;;
66478;SDS011;53294;47.912;13.526;2023-01-19T02:24:12;13.43;;;8.65;;
66478;SDS011;53294;47.912;13.526;2023-01-19T02:26:40;14.25;;;9.27;;
66478;SDS011;53294;47.912;13.526;2023-01-19T02:29:10;13.48;;;8.80;;
66478;SDS011;53294;47.912;13.526;2023-01-19T02:31:39;15.35;;;9.82;;
66478;SDS011;53294;47.912;13.526;2023-01-19T02:34:07;18.38;;;9.45;;
66478;SDS011;53294;47.912;13.526;2023-01-19T02:36:52;13.18;;;9.43;;
66478;SDS011;53294;47.912;13.526;2023-01-19T02:41:52;16.50;;;9.38;;
66478;SDS011;53294;47.912;13.526;2023-01-19T02:44:25;14.73;;;9.38;;
66478;SDS011;53294;47.912;13.526;2023-01-19T02:46:54;15.95;;;9.68;;
66478;SDS011;53294;47.912;13.526;2023-01-19T02:49:21;18.02;;;11.00;;
66478;SDS011;53294;47.912;13.526;2023-01-19T02:51:49;17.33;;;10.07;;
66478;SDS011;53294;47.912;13.526;2023-01-19T02:56:58;15.40;;;10.38;;
66478;SDS011;53294;47.912;13.526;2023-01-19T03:02:40;14.73;;;9.88;;
66478;SDS011;53294;47.912;13.526;2023-01-19T03:05:25;15.63;;;10.32;;
66478;SDS011;53294;47.912;13.526;2023-01-19T03:13:26;16.52;;;11.65;;
66478;SDS011;53294;47.912;13.526;2023-01-19T03:16:09;14.52;;;9.90;;
66478;SDS011;53294;47.912;13.526;2023-01-19T03:18:42;16.75;;;10.95;;
66478;SDS011;53294;47.912;13.526;2023-01-19T03:21:13;15.40;;;10.20;;
66478;SDS011;53294;47.912;13.526;2023-01-19T03:23:45;15.75;;;9.70;;
66478;SDS011;53294;47.912;13.526;2023-01-19T03:26:17;13.50;;;9.70;;
66478;SDS011;53294;47.912;13.526;2023-01-19T03:28:49;14.00;;;10.38;;
66478;SDS011;53294;47.912;13.526;2023-01-19T03:31:18;15.98;;;10.57;;
66478;SDS011;53294;47.912;13.526;2023-01-19T03:33:49;13.88;;;9.88;;
66478;SDS011;53294;47.912;13.526;2023-01-19T03:36:25;15.23;;;10.50;;
66478;SDS011;53294;47.912;13.526;2023-01-19T03:38:56;15.93;;;9.90;;
66478;SDS011;53294;47.912;13.526;2023-01-19T03:41:26;15.25;;;10.15;;
66478;SDS011;53294;47.912;13.526;2023-01-19T03:43:55;14.63;;;10.13;;
66478;SDS011;53294;47.912;13.526;2023-01-19T03:46:24;14.30;;;9.90;;
66478;SDS011;53294;47.912;13.526;2023-01-19T03:48:52;14.18;;;9.43;;
66478;SDS011;53294;47.912;13.526;2023-01-19T03:51:19;15.98;;;10.15;;
66478;SDS011;53294;47.912;13.526;2023-01-19T03:53:47;16.15;;;10.80;;
66478;SDS011;53294;47.912;13.526;2023-01-19T03:56:19;15.55;;;10.55;;
66478;SDS011;53294;47.912;13.526;2023-01-19T03:58:50;15.90;;;10.50;;
66478;SDS011;53294;47.912;13.526;2023-01-19T04:01:18;15.50;;;10.30;;
66478;SDS011;53294;47.912;13.526;2023-01-19T04:03:49;16.40;;;11.00;;
66478;SDS011;53294;47.912;13.526;2023-01-19T04:06:16;15.52;;;10.32;;
66478;SDS011;53294;47.912;13.526;2023-01-19T04:08:44;15.88;;;10.75;;
66478;SDS011;53294;47.912;13.526;2023-01-19T04:11:14;15.90;;;10.45;;
66478;SDS011;53294;47.912;13.526;2023-01-19T04:13:40;16.80;;;10.68;;
66478;SDS011;53294;47.912;13.526;2023-01-19T04:16:08;19.05;;;11.07;;
66478;SDS011;53294;47.912;13.526;2023-01-19T04:18:35;15.63;;;10.65;;
66478;SDS011;53294;47.912;13.526;2023-01-19T04:21:03;18.80;;;11.70;;
66478;SDS011;53294;47.912;13.526;2023-01-19T04:23:32;15.68;;;10.25;;
66478;SDS011;53294;47.912;13.526;2023-01-19T04:26:00;15.90;;;10.73;;
66478;SDS011;53294;47.912;13.526;2023-01-19T04:28:29;17.92;;;10.98;;
66478;SDS011;53294;47.912;13.526;2023-01-19T04:30:56;15.18;;;9.88;;
66478;SDS011;53294;47.912;13.526;2023-01-19T04:33:23;17.27;;;10.70;;
66478;SDS011;53294;47.912;13.526;2023-01-19T04:35:50;16.40;;;10.00;;
66478;SDS011;53294;47.912;13.526;2023-01-19T04:38:19;16.85;;;11.27;;
66478;SDS011;53294;47.912;13.526;2023-01-19T04:40:48;18.10;;;11.48;;
66478;SDS011;53294;47.912;13.526;2023-01-19T04:43:16;15.02;;;10.30;;
66478;SDS011;53294;47.912;13.526;2023-01-19T04:45:42;17.38;;;10.90;;
66478;SDS011;53294;47.912;13.526;2023-01-19T04:48:10;16.80;;;10.65;;
66478;SDS011;53294;47.912;13.526;2023-01-19T04:50:37;16.95;;;10.75;;
66478;SDS011;53294;47.912;13.526;2023-01-19T04:53:04;16.10;;;10.90;;
66478;SDS011;53294;47.912;13.526;2023-01-19T04:55:31;14.48;;;9.93;;
66478;SDS011;53294;47.912;13.526;2023-01-19T04:57:57;20.08;;;12.40;;
66478;SDS011;53294;47.912;13.526;2023-01-19T05:00:24;19.20;;;12.35;;
66478;SDS011;53294;47.912;13.526;2023-01-19T05:02:52;21.63;;;12.90;;
66478;SDS011;53294;47.912;13.526;2023-01-19T05:05:18;19.17;;;12.57;;
66478;SDS011;53294;47.912;13.526;2023-01-19T05:07:45;20.50;;;12.70;;
66478;SDS011;53294;47.912;13.526;2023-01-19T05:10:12;18.55;;;12.73;;
66478;SDS011;53294;47.912;13.526;2023-01-19T05:12:39;20.10;;;12.20;;
66478;SDS011;53294;47.912;13.526;2023-01-19T05:15:07;20.58;;;12.45;;
66478;SDS011;53294;47.912;13.526;2023-01-19T05:17:35;17.30;;;11.00;;
66478;SDS011;53294;47.912;13.526;2023-01-19T05:20:02;18.65;;;10.70;;
66478;SDS011;53294;47.912;13.526;2023-01-19T05:22:29;20.75;;;13.27;;
66478;SDS011;53294;47.912;13.526;2023-01-19T05:24:56;19.00;;;12.57;;
66478;SDS011;53294;47.912;13.526;2023-01-19T05:27:23;20.52;;;13.13;;
66478;SDS011;53294;47.912;13.526;2023-01-19T05:29:50;17.52;;;11.43;;
66478;SDS011;53294;47.912;13.526;2023-01-19T05:32:17;16.33;;;10.45;;
66478;SDS011;53294;47.912;13.526;2023-01-19T05:34:43;18.60;;;11.27;;
66478;SDS011;53294;47.912;13.526;2023-01-19T05:37:10;14.23;;;9.20;;
66478;SDS011;53294;47.912;13.526;2023-01-19T05:39:37;18.58;;;12.20;;
66478;SDS011;53294;47.912;13.526;2023-01-19T05:42:03;18.50;;;12.00;;
66478;SDS011;53294;47.912;13.526;2023-01-19T05:44:30;17.92;;;11.35;;
66478;SDS011;53294;47.912;13.526;2023-01-19T05:46:57;19.50;;;11.25;;
66478;SDS011;53294;47.912;13.526;2023-01-19T05:49:24;19.73;;;11.98;;
66478;SDS011;53294;47.912;13.526;2023-01-19T05:51:50;19.00;;;11.23;;
66478;SDS011;53294;47.912;13.526;2023-01-19T05:54:17;20.58;;;12.68;;
66478;SDS011;53294;47.912;13.526;2023-01-19T05:56:43;21.02;;;13.10;;
66478;SDS011;53294;47.912;13.526;2023-01-19T05:59:11;20.75;;;11.70;;
66478;SDS011;53294;47.912;13.526;2023-01-19T06:01:38;18.38;;;11.27;;
66478;SDS011;53294;47.912;13.526;2023-01-19T06:04:05;20.90;;;12.45;;
66478;SDS011;53294;47.912;13.526;2023-01-19T06:06:32;20.73;;;12.55;;
66478;SDS011;53294;47.912;13.526;2023-01-19T06:08:59;20.60;;;12.70;;
66478;SDS011;53294;47.912;13.526;2023-01-19T06:11:26;19.58;;;11.65;;
66478;SDS011;53294;47.912;13.526;2023-01-19T06:13:53;19.75;;;11.88;;
66478;SDS011;53294;47.912;13.526;2023-01-19T06:16:20;18.33;;;11.48;;
66478;SDS011;53294;47.912;13.526;2023-01-19T06:18:46;24.35;;;12.48;;
66478;SDS011;53294;47.912;13.526;2023-01-19T06:21:13;22.73;;;11.98;;
66478;SDS011;53294;47.912;13.526;2023-01-19T06:23:40;19.88;;;11.77;;
66478;SDS011;53294;47.912;13.526;2023-01-19T06:26:06;24.08;;;13.13;;
66478;SDS011;53294;47.912;13.526;2023-01-19T06:28:33;24.90;;;14.18;;
66478;SDS011;53294;47.912;13.526;2023-01-19T06:31:00;21.42;;;13.05;;
66478;SDS011;53294;47.912;13.526;2023-01-19T06:33:27;20.58;;;12.57;;
66478;SDS011;53294;47.912;13.526;2023-01-19T06:35:54;21.15;;;12.10;;
66478;SDS011;53294;47.912;13.526;2023-01-19T06:38:21;20.13;;;11.02;;
66478;SDS011;53294;47.912;13.526;2023-01-19T06:40:52;22.27;;;12.18;;
66478;SDS011;53294;47.912;13.526;2023-01-19T06:43:20;17.98;;;10.95;;
66478;SDS011;53294;47.912;13.526;2023-01-19T06:45:47;18.92;;;11.50;;
66478;SDS011;53294;47.912;13.526;2023-01-19T06:48:15;21.40;;;13.07;;
66478;SDS011;53294;47.912;13.526;2023-01-19T06:50:45;18.73;;;11.80;;
66478;SDS011;53294;47.912;13.526;2023-01-19T06:53:13;20.48;;;12.38;;
66478;SDS011;53294;47.912;13.526;2023-01-19T06:55:42;20.52;;;12.90;;
66478;SDS011;53294;47.912;13.526;2023-01-19T06:58:09;21.77;;;12.27;;
66478;SDS011;53294;47.912;13.526;2023-01-19T07:00:36;23.08;;;13.50;;
66478;SDS011;53294;47.912;13.526;2023-01-19T07:03:06;21.60;;;13.20;;
66478;SDS011;53294;47.912;13.526;2023-01-19T07:05:33;23.58;;;14.18;;
66478;SDS011;53294;47.912;13.526;2023-01-19T07:08:01;24.05;;;13.82;;
66478;SDS011;53294;47.912;13.526;2023-01-19T07:10:28;19.98;;;12.75;;
66478;SDS011;53294;47.912;13.526;2023-01-19T07:13:15;23.60;;;13.68;;
66478;SDS011;53294;47.912;13.526;2023-01-19T07:15:42;20.73;;;13.07;;
66478;SDS011;53294;47.912;13.526;2023-01-19T07:18:08;24.85;;;14.88;;
66478;SDS011;53294;47.912;13.526;2023-01-19T07:20:36;22.35;;;14.13;;
66478;SDS011;53294;47.912;13.526;2023-01-19T07:23:03;23.92;;;13.50;;
66478;SDS011;53294;47.912;13.526;2023-01-19T07:25:29;23.27;;;13.77;;
66478;SDS011;53294;47.912;13.526;2023-01-19T07:27:57;19.23;;;12.65;;
66478;SDS011;53294;47.912;13.526;2023-01-19T07:30:24;19.45;;;12.43;;
66478;SDS011;53294;47.912;13.526;2023-01-19T07:32:53;22.58;;;12.65;;
66478;SDS011;53294;47.912;13.526;2023-01-19T07:35:23;22.45;;;13.32;;
66478;SDS011;53294;47.912;13.526;2023-01-19T07:37:50;19.10;;;12.98;;
66478;SDS011;53294;47.912;13.526;2023-01-19T07:40:16;22.33;;;12.23;;
66478;SDS011;53294;47.912;13.526;2023-01-19T07:42:46;15.45;;;9.35;;
66478;SDS011;53294;47.912;13.526;2023-01-19T07:45:15;16.13;;;10.50;;
66478;SDS011;53294;47.912;13.526;2023-01-19T07:47:43;14.25;;;8.75;;
66478;SDS011;53294;47.912;13.526;2023-01-19T07:50:11;15.02;;;9.93;;
66478;SDS011;53294;47.912;13.526;2023-01-19T07:52:39;12.10;;;8.77;;
66478;SDS011;53294;47.912;13.526;2023-01-19T07:55:06;12.38;;;8.10;;
66478;SDS011;53294;47.912;13.526;2023-01-19T07:57:34;11.50;;;7.80;;
66478;SDS011;53294;47.912;13.526;2023-01-19T08:00:01;10.75;;;7.78;;
66478;SDS011;53294;47.912;13.526;2023-01-19T08:02:30;12.55;;;8.02;;
66478;SDS011;53294;47.912;13.526;2023-01-19T08:04:59;11.63;;;7.22;;
66478;SDS011;53294;47.912;13.526;2023-01-19T08:07:25;11.18;;;7.63;;
66478;SDS011;53294;47.912;13.526;2023-01-19T08:09:52;11.60;;;7.95;;
66478;SDS011;53294;47.912;13.526;2023-01-19T08:12:19;10.38;;;7.47;;
66478;SDS011;53294;47.912;13.526;2023-01-19T08:14:45;9.60;;;6.93;;
66478;SDS011;53294;47.912;13.526;2023-01-19T08:17:12;11.15;;;6.90;;
66478;SDS011;53294;47.912;13.526;2023-01-19T08:19:39;10.32;;;6.57;;
66478;SDS011;53294;47.912;13.526;2023-01-19T08:22:07;8.70;;;5.63;;
66478;SDS011;53294;47.912;13.526;2023-01-19T08:24:34;9.80;;;6.90;;
66478;SDS011;53294;47.912;13.526;2023-01-19T08:27:01;13.57;;;7.05;;
66478;SDS011;53294;47.912;13.526;2023-01-19T08:29:29;12.48;;;7.80;;
66478;SDS011;53294;47.912;13.526;2023-01-19T08:31:57;10.43;;;6.75;;
66478;SDS011;53294;47.912;13.526;2023-01-19T08:34:25;12.93;;;6.68;;
66478;SDS011;53294;47.912;13.526;2023-01-19T08:36:52;9.82;;;6.43;;
66478;SDS011;53294;47.912;13.526;2023-01-19T08:39:19;11.38;;;6.50;;
66478;SDS011;53294;47.912;13.526;2023-01-19T08:41:45;12.50;;;6.78;;
66478;SDS011;53294;47.912;13.526;2023-01-19T08:44:12;10.60;;;6.72;;
66478;SDS011;53294;47.912;13.526;2023-01-19T08:46:39;7.60;;;5.07;;
66478;SDS011;53294;47.912;13.526;2023-01-19T08:49:06;10.60;;;5.47;;
66478;SDS011;53294;47.912;13.526;2023-01-19T08:51:33;8.48;;;4.88;;
66478;SDS011;53294;47.912;13.526;2023-01-19T08:54:00;10.00;;;4.78;;
66478;SDS011;53294;47.912;13.526;2023-01-19T08:56:26;9.05;;;4.85;;
66478;SDS011;53294;47.912;13.526;2023-01-19T08:58:53;8.52;;;4.68;;
66478;SDS011;53294;47.912;13.526;2023-01-19T09:01:34;8.80;;;4.80;;
66478;SDS011;53294;47.912;13.526;2023-01-19T09:04:02;8.32;;;4.82;;
66478;SDS011;53294;47.912;13.526;2023-01-19T09:06:29;7.35;;;4.68;;
66478;SDS011;53294;47.912;13.526;2023-01-19T09:08:56;7.68;;;4.55;;
66478;SDS011;53294;47.912;13.526;2023-01-19T09:11:23;7.50;;;5.05;;
66478;SDS011;53294;47.912;13.526;2023-01-19T09:13:50;9.40;;;4.88;;
66478;SDS011;53294;47.912;13.526;2023-01-19T09:16:16;9.48;;;4.25;;
66478;SDS011;53294;47.912;13.526;2023-01-19T09:18:43;7.35;;;4.70;;
66478;SDS011;53294;47.912;13.526;2023-01-19T09:21:11;9.07;;;4.70;;
66478;SDS011;53294;47.912;13.526;2023-01-19T09:23:39;7.90;;;4.80;;
66478;SDS011;53294;47.912;13.526;2023-01-19T09:26:06;8.35;;;5.13;;
66478;SDS011;53294;47.912;13.526;2023-01-19T09:28:32;9.38;;;4.93;;
66478;SDS011;53294;47.912;13.526;2023-01-19T09:31:03;6.65;;;4.47;;
66478;SDS011;53294;47.912;13.526;2023-01-19T09:33:32;8.68;;;4.40;;
66478;SDS011;53294;47.912;13.526;2023-01-19T09:35:59;5.88;;;3.83;;
66478;SDS011;53294;47.912;13.526;2023-01-19T09:38:27;7.20;;;4.38;;
66478;SDS011;53294;47.912;13.526;2023-01-19T09:40:58;8.90;;;4.60;;
66478;SDS011;53294;47.912;13.526;2023-01-19T09:45:59;7.40;;;4.55;;
66478;SDS011;53294;47.912;13.526;2023-01-19T09:48:47;6.10;;;3.92;;
66478;SDS011;53294;47.912;13.526;2023-01-19T09:51:24;12.90;;;6.32;;
66478;SDS011;53294;47.912;13.526;2023-01-19T09:56:30;6.60;;;4.53;;
66478;SDS011;53294;47.912;13.526;2023-01-19T09:58:58;7.97;;;4.60;;
66478;SDS011;53294;47.912;13.526;2023-01-19T10:01:33;6.22;;;4.22;;
66478;SDS011;53294;47.912;13.526;2023-01-19T10:07:07;7.38;;;4.50;;
66478;SDS011;53294;47.912;13.526;2023-01-19T10:14:51;9.82;;;6.60;;
66478;SDS011;53294;47.912;13.526;2023-01-19T10:17:38;9.18;;;6.07;;
66478;SDS011;53294;47.912;13.526;2023-01-19T10:20:10;10.30;;;6.05;;
66478;SDS011;53294;47.912;13.526;2023-01-19T10:22:48;11.18;;;7.82;;
66478;SDS011;53294;47.912;13.526;2023-01-19T10:25:19;14.23;;;7.45;;
66478;SDS011;53294;47.912;13.526;2023-01-19T10:27:49;13.10;;;7.35;;
66478;SDS011;53294;47.912;13.526;2023-01-19T10:30:26;9.55;;;6.43;;
66478;SDS011;53294;47.912;13.526;2023-01-19T10:32:55;9.75;;;6.93;;
66478;SDS011;53294;47.912;13.526;2023-01-19T10:35:22;9.77;;;6.38;;
66478;SDS011;53294;47.912;13.526;2023-01-19T10:37:51;11.32;;;7.15;;
66478;SDS011;53294;47.912;13.526;2023-01-19T10:40:34;11.07;;;7.00;;
66478;SDS011;53294;47.912;13.526;2023-01-19T10:46:12;9.23;;;5.68;;
66478;SDS011;53294;47.912;13.526;2023-01-19T10:48:44;13.52;;;8.77;;
66478;SDS011;53294;47.912;13.526;2023-01-19T10:51:14;11.43;;;6.53;;
66478;SDS011;53294;47.912;13.526;2023-01-19T10:53:51;12.35;;;7.10;;
66478;SDS011;53294;47.912;13.526;2023-01-19T10:56:30;16.55;;;10.00;;
66478;SDS011;53294;47.912;13.526;2023-01-19T10:59:01;34.28;;;14.82;;
66478;SDS011;53294;47.912;13.526;2023-01-19T11:01:30;20.02;;;10.65;;
66478;SDS011;53294;47.912;13.526;2023-01-19T11:04:19;20.92;;;10.43;;
66478;SDS011;53294;47.912;13.526;2023-01-19T11:06:52;15.57;;;8.40;;
66478;SDS011;53294;47.912;13.526;2023-01-19T11:12:40;11.20;;;7.70;;
66478;SDS011;53294;47.912;13.526;2023-01-19T11:15:15;11.52;;;7.85;;
66478;SDS011;53294;47.912;13.526;2023-01-19T11:17:48;10.73;;;7.45;;
66478;SDS011;53294;47.912;13.526;2023-01-19T11:20:37;12.10;;;7.18;;
66478;SDS011;53294;47.912;13.526;2023-01-19T11:25:39;12.07;;;8.50;;
66478;SDS011;53294;47.912;13.526;2023-01-19T11:28:12;12.93;;;7.78;;
66478;SDS011;53294;47.912;13.526;2023-01-19T11:33:38;13.38;;;7.65;;
66478;SDS011;53294;47.912;13.526;2023-01-19T11:36:17;11.57;;;6.97;;
66478;SDS011;53294;47.912;13.526;2023-01-19T11:38:50;11.23;;;7.30;;
66478;SDS011;53294;47.912;13.526;2023-01-19T11:41:19;12.45;;;6.88;;
66478;SDS011;53294;47.912;13.526;2023-01-19T11:44:04;12.30;;;7.65;;
66478;SDS011;53294;47.912;13.526;2023-01-19T11:46:38;13.13;;;7.88;;
66478;SDS011;53294;47.912;13.526;2023-01-19T11:49:19;11.82;;;7.45;;
66478;SDS011;53294;47.912;13.526;2023-01-19T11:51:57;13.50;;;8.52;;
66478;SDS011;53294;47.912;13.526;2023-01-19T11:54:53;11.65;;;7.80;;
66478;SDS011;53294;47.912;13.526;2023-01-19T11:57:44;12.57;;;7.57;;
66478;SDS011;53294;47.912;13.526;2023-01-19T12:00:22;12.98;;;8.07;;
66478;SDS011;53294;47.912;13.526;2023-01-19T12:03:32;12.30;;;7.78;;
66478;SDS011;53294;47.912;13.526;2023-01-19T12:06:02;11.20;;;7.22;;
66478;SDS011;53294;47.912;13.526;2023-01-19T12:08:33;12.60;;;8.43;;
66478;SDS011;53294;47.912;13.526;2023-01-19T12:11:02;13.82;;;8.55;;
66478;SDS011;53294;47.912;13.526;2023-01-19T12:13:31;17.70;;;9.05;;
66478;SDS011;53294;47.912;13.526;2023-01-19T12:19:06;13.10;;;8.30;;
66478;SDS011;53294;47.912;13.526;2023-01-19T12:21:36;13.52;;;7.65;;
66478;SDS011;53294;47.912;13.526;2023-01-19T12:24:13;11.45;;;7.85;;
66478;SDS011;53294;47.912;13.526;2023-01-19T12:26:53;12.05;;;8.45;;
66478;SDS011;53294;47.912;13.526;2023-01-19T12:29:24;11.65;;;7.05;;
66478;SDS011;53294;47.912;13.526;2023-01-19T12:34:39;17.58;;;10.15;;
66478;SDS011;53294;47.912;13.526;2023-01-19T12:37:26;14.23;;;8.50;;
66478;SDS011;53294;47.912;13.526;2023-01-19T12:40:02;23.70;;;12.63;;
66478;SDS011;53294;47.912;13.526;2023-01-19T12:42:30;17.65;;;10.60;;
66478;SDS011;53294;47.912;13.526;2023-01-19T12:45:12;18.73;;;10.60;;
66478;SDS011;53294;47.912;13.526;2023-01-19T12:47:51;12.05;;;7.95;;
66478;SDS011;53294;47.912;13.526;2023-01-19T12:50:19;11.68;;;7.32;;
66478;SDS011;53294;47.912;13.526;2023-01-19T12:52:50;9.25;;;6.68;;
66478;SDS011;53294;47.912;13.526;2023-01-19T12:55:26;11.10;;;7.03;;
66478;SDS011;53294;47.912;13.526;2023-01-19T12:58:02;11.85;;;6.55;;
66478;SDS011;53294;47.912;13.526;2023-01-19T13:00:46;14.48;;;9.05;;
66478;SDS011;53294;47.912;13.526;2023-01-19T13:13:34;13.82;;;7.45;;
66478;SDS011;53294;47.912;13.526;2023-01-19T13:21:26;13.48;;;8.98;;
66478;SDS011;53294;47.912;13.526;2023-01-19T13:23:56;11.65;;;7.72;;
66478;SDS011;53294;47.912;13.526;2023-01-19T13:26:28;10.27;;;7.60;;
66478;SDS011;53294;47.912;13.526;2023-01-19T13:31:35;13.95;;;8.05;;
66478;SDS011;53294;47.912;13.526;2023-01-19T13:34:09;18.23;;;10.10;;
66478;SDS011;53294;47.912;13.526;2023-01-19T13:36:42;13.88;;;8.40;;
66478;SDS011;53294;47.912;13.526;2023-01-19T13:39:19;12.15;;;8.00;;
66478;SDS011;53294;47.912;13.526;2023-01-19T13:41:53;13.38;;;8.35;;
66478;SDS011;53294;47.912;13.526;2023-01-19T13:44:24;13.68;;;8.55;;
66478;SDS011;53294;47.912;13.526;2023-01-19T13:46:51;14.68;;;7.95;;
66478;SDS011;53294;47.912;13.526;2023-01-19T13:49:26;13.43;;;8.30;;
66478;SDS011;53294;47.912;13.526;2023-01-19T13:52:12;12.50;;;8.13;;
66478;SDS011;53294;47.912;13.526;2023-01-19T13:54:55;13.38;;;7.80;;
66478;SDS011;53294;47.912;13.526;2023-01-19T13:57:32;12.27;;;7.82;;
66478;SDS011;53294;47.912;13.526;2023-01-19T14:02:31;17.88;;;10.38;;
66478;SDS011;53294;47.912;13.526;2023-01-19T14:05:11;9.45;;;6.05;;
66478;SDS011;53294;47.912;13.526;2023-01-19T14:07:39;12.63;;;7.38;;
66478;SDS011;53294;47.912;13.526;2023-01-19T14:10:09;15.15;;;9.88;;
66478;SDS011;53294;47.912;13.526;2023-01-19T14:12:40;10.05;;;7.13;;
66478;SDS011;53294;47.912;13.526;2023-01-19T14:15:23;11.63;;;7.03;;
66478;SDS011;53294;47.912;13.526;2023-01-19T14:37:50;9.85;;;6.00;;
66478;SDS011;53294;47.912;13.526;2023-01-19T14:40:18;13.68;;;6.35;;
66478;SDS011;53294;47.912;13.526;2023-01-19T14:42:48;9.18;;;5.70;;
66478;SDS011;53294;47.912;13.526;2023-01-19T14:45:29;10.82;;;7.10;;
66478;SDS011;53294;47.912;13.526;2023-01-19T14:50:43;10.68;;;6.88;;
66478;SDS011;53294;47.912;13.526;2023-01-19T14:53:27;10.68;;;6.47;;
66478;SDS011;53294;47.912;13.526;2023-01-19T14:55:55;13.55;;;7.55;;
66478;SDS011;53294;47.912;13.526;2023-01-19T14:58:26;11.50;;;7.18;;
66478;SDS011;53294;47.912;13.526;2023-01-19T15:00:56;13.80;;;7.45;;
66478;SDS011;53294;47.912;13.526;2023-01-19T15:03:24;12.52;;;7.38;;
66478;SDS011;53294;47.912;13.526;2023-01-19T15:06:15;11.07;;;6.95;;
66478;SDS011;53294;47.912;13.526;2023-01-19T15:08:43;13.55;;;8.25;;
66478;SDS011;53294;47.912;13.526;2023-01-19T15:11:14;122.43;;;39.63;;
66478;SDS011;53294;47.912;13.526;2023-01-19T15:14:02;19.92;;;9.88;;
66478;SDS011;53294;47.912;13.526;2023-01-19T15:16:30;12.07;;;7.32;;
66478;SDS011;53294;47.912;13.526;2023-01-19T15:18:59;12.65;;;6.75;;
66478;SDS011;53294;47.912;13.526;2023-01-19T15:21:26;11.05;;;6.50;;
66478;SDS011;53294;47.912;13.526;2023-01-19T15:23:53;9.95;;;6.38;;
66478;SDS011;53294;47.912;13.526;2023-01-19T15:26:21;10.75;;;7.03;;
66478;SDS011;53294;47.912;13.526;2023-01-19T15:28:49;10.55;;;6.93;;
66478;SDS011;53294;47.912;13.526;2023-01-19T15:31:17;11.35;;;7.00;;
66478;SDS011;53294;47.912;13.526;2023-01-19T15:33:46;9.02;;;5.93;;
66478;SDS011;53294;47.912;13.526;2023-01-19T15:36:13;10.98;;;6.28;;
66478;SDS011;53294;47.912;13.526;2023-01-19T15:38:43;11.02;;;7.20;;
66478;SDS011;53294;47.912;13.526;2023-01-19T15:43:38;9.32;;;5.90;;
66478;SDS011;53294;47.912;13.526;2023-01-19T15:46:05;10.80;;;6.95;;
66478;SDS011;53294;47.912;13.526;2023-01-19T15:48:32;11.85;;;6.80;;
66478;SDS011;53294;47.912;13.526;2023-01-19T15:50:59;13.70;;;9.25;;
66478;SDS011;53294;47.912;13.526;2023-01-19T15:53:26;39.78;;;25.67;;
66478;SDS011;53294;47.912;13.526;2023-01-19T15:55:53;28.85;;;18.60;;
66478;SDS011;53294;47.912;13.526;2023-01-19T15:58:22;16.73;;;11.52;;
66478;SDS011;53294;47.912;13.526;2023-01-19T16:00:52;12.35;;;8.13;;
66478;SDS011;53294;47.912;13.526;2023-01-19T16:03:23;10.48;;;6.90;;
66478;SDS011;53294;47.912;13.526;2023-01-19T16:05:50;13.15;;;7.68;;
66478;SDS011;53294;47.912;13.526;2023-01-19T16:08:17;10.90;;;6.90;;
66478;SDS011;53294;47.912;13.526;2023-01-19T16:10:44;11.93;;;7.50;;
66478;SDS011;53294;47.912;13.526;2023-01-19T16:13:11;13.32;;;8.40;;